.
WxDataArchive / Data Records for 2007-08-16
2007-08-15 August 2007 2007-08-17

Data Records for Thursday, 16 August 2007

Time	Temp	Chill	HIndex	Humid	Dewpt	 Wind 	HiWind	WindDir	Rain 	Barom 
-----	----	-----	------	-----	-----	------	------	-------	-----	----- 
00:00	74.0	74.0	74.0	88	70.2	0	1	315	0.05	29.851 
00:05	73.5	73.5	73.5	90	70.4	0	3	90	0.16	29.855 
00:10	72.1	72.1	72.1	88	68.3	2	5	90	0.04	29.839 
00:15	70.8	70.8	70.8	91	68.0	3	6	90	0.04	29.794 
00:20	70.3	70.3	70.3	92	67.9	1	3	90	0.00	29.794 
00:25	70.1	70.1	70.1	93	68.0	3	6	90	0.00	29.779 
00:30	69.8	69.8	69.8	93	67.7	3	5	90	0.01	29.789 
00:35	69.6	69.6	69.6	94	67.8	1	3	270	0.01	29.793 
00:40	69.4	69.4	69.4	94	67.6	0	2	248	0.00	29.774 
00:45	69.4	69.4	69.4	95	67.9	0	3	202	0.00	29.772 
00:50	69.4	69.4	69.4	95	67.9	0	2	90	0.00	29.782 
00:55	69.3	69.3	69.3	95	67.8	1	4	270	0.00	29.796 
01:00	69.3	69.3	69.3	95	67.8	1	5	270	0.00	29.800 
01:05	69.1	69.1	69.1	95	67.6	2	5	248	0.00	29.811 
01:10	68.9	68.9	68.9	95	67.4	0	3	248	0.00	29.808 
01:15	68.8	68.8	68.8	95	67.3	1	2	315	0.00	29.796 
01:20	68.6	68.6	68.6	95	67.1	1	3	68	0.00	29.796 
01:25	68.6	68.6	68.6	95	67.1	1	2	112	0.00	29.789 
01:30	68.6	68.6	68.6	95	67.1	0	2	112	0.00	29.786 
01:35	68.4	68.4	68.4	95	66.9	0	2	112	0.00	29.789 
01:40	68.4	68.4	68.4	95	66.9	0	0	---	0.00	29.787 
01:45	68.4	68.4	68.4	95	66.9	0	0	---	0.00	29.790 
01:50	68.4	68.4	68.4	95	66.9	0	0	---	0.00	29.789 
01:55	68.3	68.3	68.3	95	66.8	0	0	---	0.00	29.783 
02:00	68.3	68.3	68.3	95	66.8	0	1	112	0.00	29.782 
02:05	68.3	68.3	68.3	95	66.8	0	1	112	0.00	29.783 
02:10	68.3	68.3	68.3	95	66.8	0	1	112	0.00	29.788 
02:15	68.3	68.3	68.3	95	66.8	0	1	112	0.00	29.785 
02:20	68.1	68.1	68.1	95	66.6	0	0	---	0.00	29.785 
02:25	68.1	68.1	68.1	95	66.6	0	1	112	0.00	29.786 
02:30	68.1	68.1	68.1	95	66.6	0	1	112	0.00	29.783 
02:35	67.9	67.9	67.9	96	66.7	0	1	112	0.00	29.783 
02:40	67.9	67.9	67.9	96	66.7	0	1	112	0.00	29.781 
02:45	67.9	67.9	67.9	96	66.7	0	1	112	0.00	29.780 
02:50	67.8	67.8	67.8	96	66.6	0	0	---	0.00	29.781 
02:55	67.8	67.8	67.8	96	66.6	0	0	---	0.00	29.780 
03:00	67.6	67.6	67.6	96	66.4	0	0	---	0.00	29.777 
03:05	67.6	67.6	67.6	96	66.4	0	0	---	0.00	29.772 
03:10	67.6	67.6	67.6	96	66.4	0	0	---	0.00	29.778 
03:15	67.6	67.6	67.6	96	66.4	0	0	---	0.00	29.778 
03:20	67.6	67.6	67.6	96	66.4	0	0	---	0.00	29.778 
03:25	67.4	67.4	67.4	96	66.2	0	0	---	0.00	29.776 
03:30	67.4	67.4	67.4	96	66.2	0	0	---	0.00	29.777 
03:35	67.3	67.3	67.3	96	66.1	0	0	---	0.00	29.778 
03:40	67.3	67.3	67.3	96	66.1	0	0	---	0.00	29.776 
03:45	67.3	67.3	67.3	96	66.1	0	0	---	0.00	29.774 
03:50	67.1	67.1	67.1	96	65.9	0	0	---	0.00	29.770 
03:55	67.1	67.1	67.1	96	65.9	0	0	---	0.00	29.771 
04:00	66.9	66.9	66.9	96	65.7	0	0	---	0.00	29.771 
04:05	66.9	66.9	66.9	96	65.7	0	0	---	0.00	29.775 
04:10	66.8	66.8	66.8	96	65.6	0	0	---	0.00	29.774 
04:15	66.8	66.8	66.8	96	65.6	0	0	---	0.00	29.774 
04:20	66.8	66.8	66.8	96	65.6	0	0	---	0.00	29.774 
04:25	66.6	66.6	66.6	96	65.4	0	0	---	0.00	29.774 
04:30	66.6	66.6	66.6	96	65.4	0	0	---	0.00	29.774 
04:35	66.6	66.6	66.6	96	65.4	0	0	---	0.00	29.774 
04:40	66.4	66.4	66.4	96	65.2	0	0	---	0.00	29.774 
04:45	66.4	66.4	66.4	96	65.2	0	0	---	0.00	29.777 
04:50	66.4	66.4	66.4	97	65.5	0	0	---	0.00	29.779 
04:55	66.4	66.4	66.4	97	65.5	0	0	---	0.00	29.780 
05:00	66.4	66.4	66.4	97	65.5	0	0	---	0.00	29.781 
05:05	66.4	66.4	66.4	97	65.5	0	0	---	0.00	29.782 
05:10	66.4	66.4	66.4	97	65.5	0	0	---	0.00	29.783 
05:15	66.4	66.4	66.4	97	65.5	0	0	---	0.00	29.786 
05:20	66.6	66.6	66.6	97	65.7	0	0	---	0.00	29.789 
05:25	66.6	66.6	66.6	97	65.7	0	0	---	0.00	29.789 
05:30	66.6	66.6	66.6	97	65.7	0	0	---	0.00	29.791 
05:35	66.8	66.8	66.8	97	65.9	0	0	---	0.00	29.795 
05:40	66.9	66.9	66.9	97	66.0	0	0	---	0.00	29.795 
05:45	67.1	67.1	67.1	97	66.2	0	0	---	0.00	29.796 
05:50	67.4	67.4	67.4	97	66.5	0	1	112	0.00	29.796 
05:55	67.4	67.4	67.4	97	66.5	0	0	---	0.00	29.795 
06:00	67.8	67.8	67.8	97	66.9	0	0	---	0.00	29.797 
06:05	67.8	67.8	67.8	97	66.9	0	0	---	0.00	29.798 
06:10	67.9	67.9	67.9	97	67.0	0	0	---	0.00	29.799 
06:15	68.1	68.1	68.1	97	67.2	0	1	112	0.00	29.806 
06:20	68.3	68.3	68.3	97	67.4	0	1	112	0.00	29.803 
06:25	68.3	68.3	68.3	97	67.4	0	0	---	0.00	29.802 
06:30	68.3	68.3	68.3	97	67.4	0	1	112	0.00	29.808 
06:35	68.4	68.4	68.4	97	67.5	0	1	112	0.00	29.809 
06:40	68.4	68.4	68.4	97	67.5	0	1	112	0.00	29.812 
06:45	68.6	68.6	68.6	97	67.7	0	1	112	0.00	29.816 
06:50	68.8	68.8	68.8	97	67.9	0	1	112	0.00	29.823 
06:55	68.9	68.9	68.9	97	68.0	0	1	112	0.00	29.826 
07:00	68.9	68.9	68.9	97	68.0	0	1	112	0.00	29.828 
07:05	69.1	69.1	69.1	97	68.2	0	1	112	0.00	29.829 
07:10	69.3	69.3	69.3	97	68.4	0	1	112	0.00	29.829 
07:15	69.4	69.4	69.4	97	68.5	0	1	112	0.00	29.831 
07:20	69.6	69.6	69.6	97	68.7	0	1	112	0.00	29.831 
07:25	69.8	69.8	69.8	97	68.9	1	2	112	0.00	29.841 
07:30	70.1	70.1	70.1	97	69.2	0	2	112	0.00	29.842 
07:35	70.3	70.3	70.3	97	69.4	1	2	112	0.00	29.843 
07:40	70.6	70.6	70.6	97	69.7	1	2	112	0.00	29.846 
07:45	70.9	70.9	70.9	96	69.7	0	2	112	0.00	29.847 
07:50	70.9	70.9	70.9	96	69.7	0	2	112	0.00	29.847 
07:55	71.1	71.1	71.1	96	69.9	0	1	112	0.00	29.847 
08:00	71.5	71.5	71.5	96	70.3	0	1	112	0.00	29.844 
08:05	71.8	71.8	71.8	95	70.3	0	1	112	0.00	29.848 
08:10	72.1	72.1	72.1	94	70.3	0	2	112	0.00	29.847 
08:15	72.7	72.7	72.7	93	70.6	0	3	22	0.00	29.847 
08:20	73.3	73.3	73.3	92	70.8	0	2	248	0.00	29.847 
08:25	73.7	73.7	73.7	91	70.9	0	2	248	0.00	29.849 
08:30	74.0	74.0	74.0	90	70.9	1	2	248	0.00	29.847 
08:35	74.4	74.4	74.4	88	70.6	1	4	270	0.00	29.848 
08:40	74.7	74.7	74.7	88	70.9	0	1	270	0.00	29.848 
08:45	75.1	75.1	74.6	88	71.3	0	3	270	0.00	29.851 
08:50	75.3	75.3	75.4	85	70.5	1	4	270	0.00	29.852 
08:55	75.1	75.1	74.9	86	70.6	1	3	292	0.00	29.852 
09:00	74.9	74.9	74.9	86	70.4	0	2	292	0.00	29.856 
09:05	74.9	74.9	74.9	86	70.4	1	4	292	0.00	29.858 
09:10	74.9	74.9	74.9	86	70.4	0	2	292	0.00	29.859 
09:15	74.7	74.7	74.7	86	70.2	1	3	270	0.00	29.860 
09:20	74.7	74.7	74.7	85	69.9	1	4	270	0.00	29.860 
09:25	74.6	74.6	74.6	87	70.5	0	2	292	0.00	29.866 
09:30	74.7	74.7	74.7	87	70.6	0	1	315	0.00	29.870 
09:35	74.9	74.9	74.9	87	70.8	0	2	225	0.00	29.872 
09:40	74.9	74.9	74.9	86	70.4	0	2	292	0.00	29.870 
09:45	75.1	75.1	74.9	86	70.6	0	1	292	0.00	29.869 
09:50	75.3	75.3	75.1	87	71.2	0	1	292	0.00	29.867 
09:55	75.4	75.4	75.5	85	70.6	0	1	292	0.00	29.870 
10:00	75.4	75.4	75.7	84	70.2	0	1	292	0.00	29.869 
10:05	75.4	75.4	75.7	84	70.2	0	1	292	0.00	29.869 
10:10	75.6	75.6	76.0	84	70.4	0	2	292	0.00	29.872 
10:15	75.8	75.8	76.3	84	70.6	0	4	22	0.00	29.874 
10:20	75.6	75.6	76.0	84	70.4	0	1	22	0.00	29.874 
10:25	75.6	75.6	76.0	84	70.4	0	2	0	0.00	29.873 
10:30	75.8	75.8	76.3	84	70.6	0	1	0	0.00	29.876 
10:35	76.0	76.0	76.7	84	70.8	0	2	0	0.00	29.878 
10:40	76.1	76.1	76.8	84	70.9	0	2	45	0.00	29.879 
10:45	76.3	76.3	77.2	84	71.1	0	1	45	0.00	29.885 
10:50	76.5	76.5	77.5	84	71.3	0	1	45	0.00	29.883 
10:55	76.7	76.7	77.9	83	71.1	0	1	45	0.00	29.885 
11:00	76.8	76.8	78.2	81	70.5	0	3	315	0.00	29.885 
11:05	77.4	77.4	79.2	81	71.1	1	3	0	0.00	29.887 
11:10	77.9	77.9	80.1	80	71.2	0	2	0	0.00	29.887 
11:15	78.5	78.5	81.2	79	71.4	0	3	22	0.00	29.885 
11:20	78.6	78.6	81.3	78	71.1	0	1	22	0.00	29.881 
11:25	78.8	78.8	81.7	79	71.7	1	3	338	0.00	29.880 
11:30	79.0	79.0	82.0	78	71.5	0	2	338	0.00	29.881 
11:35	79.4	79.4	82.8	78	71.9	0	2	338	0.00	29.877 
11:40	79.4	79.4	82.7	77	71.5	1	3	315	0.00	29.877 
11:45	79.6	79.6	83.1	77	71.7	0	3	270	0.00	29.875 
11:50	79.9	79.9	83.6	77	72.0	0	2	270	0.00	29.872 
11:55	80.1	80.1	83.8	75	71.4	0	1	270	0.00	29.872 
12:00	80.3	80.3	84.3	76	72.0	0	2	270	0.00	29.873 
12:05	80.7	80.7	84.9	75	72.0	0	2	270	0.00	29.875 
12:10	81.2	81.2	85.7	74	72.1	0	3	270	0.00	29.879 
12:15	81.6	81.6	86.5	74	72.5	0	2	315	0.00	29.879 
12:20	81.8	81.8	86.7	73	72.3	0	2	338	0.00	29.881 
12:25	82.2	82.2	86.8	70	71.4	0	2	338	0.00	29.885 
12:30	82.0	82.0	86.4	70	71.2	1	3	292	0.00	29.888 
12:35	82.2	82.2	87.3	72	72.2	0	1	248	0.00	29.888 
12:40	82.0	82.0	86.4	70	71.2	1	2	292	0.00	29.893 
12:45	82.0	82.0	86.4	70	71.2	0	2	292	0.00	29.892 
12:50	82.2	82.2	86.6	69	71.0	0	2	292	0.00	29.890 
12:55	82.4	82.4	87.4	71	72.0	1	3	292	0.00	29.891 
13:00	82.4	82.4	87.0	69	71.2	0	2	292	0.00	29.896 
13:05	82.4	82.4	87.2	70	71.6	1	2	292	0.00	29.899 
13:10	82.6	82.6	87.6	70	71.8	1	3	292	0.00	29.897 
13:15	82.4	82.4	87.0	69	71.2	1	3	270	0.00	29.898 
13:20	82.2	82.2	87.0	71	71.8	1	3	270	0.00	29.900 
13:25	82.2	82.2	86.8	70	71.4	1	2	292	0.00	29.901 
13:30	82.0	82.0	86.4	70	71.2	1	3	315	0.00	29.903 
13:35	82.0	82.0	86.7	71	71.6	1	3	270	0.00	29.904 
13:40	81.8	81.8	85.9	69	70.6	1	4	315	0.00	29.904 
13:45	81.8	81.8	86.5	72	71.9	1	3	315	0.00	29.903 
13:50	81.6	81.6	85.9	71	71.3	1	3	248	0.00	29.900 
13:55	81.6	81.6	86.1	72	71.7	0	2	248	0.00	29.898 
14:00	81.4	81.4	85.5	71	71.1	0	2	315	0.00	29.894 
14:05	81.4	81.4	85.7	72	71.5	0	2	292	0.00	29.897 
14:10	81.4	81.4	85.5	71	71.1	1	3	248	0.00	29.898 
14:15	81.2	81.2	85.2	71	70.9	0	2	292	0.00	29.899 
14:20	81.2	81.2	85.3	72	71.3	0	2	292	0.00	29.900 
14:25	81.1	81.1	85.2	72	71.2	0	2	292	0.00	29.897 
14:30	80.9	80.9	85.0	73	71.4	0	2	292	0.00	29.894 
14:35	81.1	81.1	85.0	71	70.8	0	1	292	0.00	29.893 
14:40	81.1	81.1	85.2	72	71.2	0	1	292	0.00	29.894 
14:45	81.1	81.1	85.2	72	71.2	1	2	292	0.00	29.902 
14:50	80.7	80.7	84.4	72	70.8	1	3	292	0.00	29.904 
14:55	80.3	80.3	83.9	73	70.8	0	2	292	0.00	29.907 
15:00	79.9	79.9	83.1	73	70.4	0	1	292	0.00	29.908 
15:05	79.9	79.9	83.1	73	70.4	0	3	292	0.00	29.913 
15:10	79.8	79.8	83.0	73	70.4	1	2	315	0.00	29.918 
15:15	79.4	79.4	82.3	73	70.0	0	2	315	0.00	29.911 
15:20	79.4	79.4	82.4	74	70.4	0	2	315	0.00	29.909 
15:25	79.4	79.4	82.5	75	70.8	0	1	315	0.00	29.907 
15:30	79.6	79.6	82.6	73	70.2	0	2	315	0.00	29.905 
15:35	79.6	79.6	82.6	73	70.2	0	2	315	0.00	29.905 
15:40	79.6	79.6	82.6	73	70.2	0	1	315	0.00	29.904 
15:45	79.6	79.6	82.6	73	70.2	1	2	315	0.00	29.902 
15:50	79.6	79.6	82.5	72	69.8	0	2	315	0.00	29.898 
15:55	79.6	79.6	82.5	72	69.8	1	3	248	0.00	29.906 
16:00	79.4	79.4	82.2	72	69.6	1	4	270	0.00	29.910 
16:05	79.4	79.4	82.3	73	70.0	0	2	270	0.00	29.915 
16:10	79.2	79.2	82.0	73	69.8	0	3	270	0.00	29.916 
16:15	79.2	79.2	82.1	74	70.2	0	1	270	0.00	29.911 
16:20	79.0	79.0	81.6	73	69.6	0	2	248	0.00	29.910 
16:25	78.8	78.8	81.4	74	69.8	0	1	248	0.00	29.909 
16:30	78.6	78.6	81.0	73	69.2	0	1	248	0.00	29.912 
16:35	78.6	78.6	81.1	74	69.6	0	1	270	0.00	29.912 
16:40	78.5	78.5	81.0	75	69.9	0	1	270	0.00	29.917 
16:45	78.5	78.5	81.0	75	69.9	0	1	270	0.00	29.921 
16:50	78.5	78.5	81.0	75	69.9	0	1	270	0.00	29.919 
16:55	78.3	78.3	80.7	76	70.1	0	1	270	0.00	29.924 
17:00	78.3	78.3	80.6	75	69.7	0	2	270	0.00	29.925 
17:05	78.5	78.5	80.9	74	69.5	1	2	270	0.00	29.923 
17:10	78.5	78.5	81.0	75	69.9	0	1	270	0.00	29.923 
17:15	78.5	78.5	81.0	75	69.9	1	3	248	0.00	29.922 
17:20	78.5	78.5	81.0	76	70.3	0	2	248	0.00	29.924 
17:25	78.3	78.3	80.7	76	70.1	1	3	248	0.00	29.928 
17:30	78.3	78.3	80.7	77	70.5	1	3	248	0.00	29.928 
17:35	78.1	78.1	80.4	76	69.9	1	4	270	0.00	29.928 
17:40	78.1	78.1	80.4	76	69.9	1	4	270	0.00	29.925 
17:45	78.1	78.1	80.4	76	69.9	1	3	292	0.00	29.923 
17:50	77.9	77.9	80.1	77	70.1	1	3	292	0.00	29.921 
17:55	77.7	77.7	79.7	76	69.5	1	3	270	0.00	29.912 
18:00	77.7	77.7	79.7	76	69.5	0	2	292	0.00	29.909 
18:05	77.6	77.6	79.6	76	69.4	0	2	292	0.00	29.912 
18:10	77.4	77.4	79.3	76	69.2	0	1	292	0.00	29.914 
18:15	77.2	77.2	79.0	76	69.0	0	1	292	0.00	29.908 
18:20	77.0	77.0	78.7	77	69.2	0	1	292	0.00	29.906 
18:25	77.0	77.0	78.7	77	69.2	0	1	292	0.00	29.905 
18:30	76.8	76.8	78.4	77	69.0	0	1	292	0.00	29.907 
18:35	76.7	76.7	78.2	77	68.9	0	1	292	0.00	29.906 
18:40	76.5	76.5	77.9	77	68.7	0	2	292	0.00	29.905 
18:45	76.5	76.5	77.9	78	69.1	0	1	292	0.00	29.902 
18:50	76.3	76.3	77.6	78	68.9	0	2	292	0.00	29.896 
18:55	76.3	76.3	77.5	79	69.3	0	1	292	0.00	29.890 
19:00	76.0	76.0	77.0	80	69.4	0	1	292	0.00	29.892 
19:05	75.8	75.8	76.7	80	69.2	0	1	292	0.00	29.887 
19:10	75.6	75.6	76.3	81	69.3	0	1	292	0.00	29.890 
19:15	75.4	75.4	76.0	81	69.1	0	1	292	0.00	29.891 
19:20	75.3	75.3	75.9	81	69.1	0	0	---	0.00	29.890 
19:25	75.3	75.3	75.8	82	69.4	0	0	---	0.00	29.890 
19:30	75.1	75.1	75.3	83	69.6	0	0	---	0.00	29.889 
19:35	74.9	74.9	74.9	84	69.7	0	0	---	0.00	29.889 
19:40	74.7	74.7	74.7	84	69.5	0	0	---	0.00	29.890 
19:45	74.7	74.7	74.7	84	69.5	0	0	---	0.00	29.891 
19:50	74.6	74.6	74.6	85	69.8	0	1	292	0.00	29.891 
19:55	74.2	74.2	74.2	85	69.4	0	0	---	0.00	29.893 
20:00	74.0	74.0	74.0	86	69.5	0	0	---	0.00	29.892 
20:05	73.9	73.9	73.9	86	69.4	0	0	---	0.00	29.892 
20:10	73.7	73.7	73.7	87	69.6	0	1	292	0.00	29.897 
20:15	73.5	73.5	73.5	87	69.4	0	1	292	0.00	29.894 
20:20	73.3	73.3	73.3	88	69.5	0	1	292	0.00	29.899 
20:25	73.2	73.2	73.2	88	69.4	0	0	---	0.00	29.899 
20:30	73.0	73.0	73.0	88	69.2	0	0	---	0.00	29.898 
20:35	72.8	72.8	72.8	88	69.0	0	0	---	0.00	29.901 
20:40	72.5	72.5	72.5	89	69.1	0	0	---	0.00	29.897 
20:45	72.3	72.3	72.3	89	68.9	0	1	292	0.00	29.903 
20:50	72.1	72.1	72.1	90	69.0	0	1	292	0.00	29.906 
20:55	72.1	72.1	72.1	90	69.0	0	1	292	0.00	29.907 
21:00	72.0	72.0	72.0	90	68.9	0	1	292	0.00	29.910 
21:05	71.8	71.8	71.8	90	68.7	0	0	---	0.00	29.907 
21:10	71.6	71.6	71.6	90	68.5	0	1	292	0.00	29.907 
21:15	71.5	71.5	71.5	90	68.4	0	0	---	0.00	29.907 
21:20	71.3	71.3	71.3	91	68.5	0	0	---	0.00	29.908 
21:25	71.1	71.1	71.1	91	68.3	0	0	---	0.00	29.909 
21:30	70.9	70.9	70.9	91	68.1	0	0	---	0.00	29.909 
21:35	70.6	70.6	70.6	92	68.2	0	0	---	0.00	29.909 
21:40	70.4	70.4	70.4	92	68.0	0	0	---	0.00	29.910 
21:45	70.3	70.3	70.3	92	67.9	0	0	---	0.00	29.911 
21:50	70.1	70.1	70.1	92	67.7	0	0	---	0.00	29.913 
21:55	69.9	69.9	69.9	92	67.5	0	0	---	0.00	29.916 
22:00	69.9	69.9	69.9	93	67.8	0	1	292	0.00	29.912 
22:05	69.8	69.8	69.8	93	67.7	0	0	---	0.00	29.915 
22:10	69.6	69.6	69.6	93	67.5	0	1	292	0.00	29.921 
22:15	69.4	69.4	69.4	93	67.3	0	1	292	0.00	29.925 
22:20	69.3	69.3	69.3	93	67.2	0	1	292	0.00	29.930 
22:25	69.1	69.1	69.1	93	67.0	0	1	292	0.00	29.933 
22:30	68.9	68.9	68.9	93	66.8	0	0	---	0.00	29.930 
22:35	68.8	68.8	68.8	93	66.7	0	0	---	0.00	29.933 
22:40	68.6	68.6	68.6	93	66.5	0	1	292	0.00	29.936 
22:45	68.6	68.6	68.6	93	66.5	0	1	292	0.00	29.932 
22:50	68.4	68.4	68.4	93	66.3	0	1	292	0.00	29.930 
22:55	68.3	68.3	68.3	93	66.2	0	0	---	0.00	29.937 
23:00	68.1	68.1	68.1	93	66.0	0	1	292	0.00	29.938 
23:05	67.9	67.9	67.9	93	65.8	0	0	---	0.00	29.934 
23:10	67.8	67.8	67.8	93	65.7	0	0	---	0.00	29.932 
23:15	67.6	67.6	67.6	93	65.5	0	0	---	0.00	29.936 
23:20	67.6	67.6	67.6	93	65.5	0	0	---	0.00	29.935 
23:25	67.4	67.4	67.4	94	65.6	0	1	292	0.00	29.936 
23:30	67.3	67.3	67.3	94	65.5	0	1	292	0.00	29.938 
23:35	67.3	67.3	67.3	94	65.5	0	1	292	0.00	29.941 
23:40	67.1	67.1	67.1	94	65.3	0	1	292	0.00	29.947 
23:45	66.9	66.9	66.9	94	65.1	0	1	292	0.00	29.947 
23:50	66.9	66.9	66.9	94	65.1	0	1	292	0.00	29.945 
23:55	66.8	66.8	66.8	94	65.0	0	0	---	0.00	29.943 

CoCoRaHS
IN-AL-39
A2 Web Hosting
Creative Commons License
GoDaddy
Look for:

loaded 2017-12-13 02:25:37 • last modified 2010-11-18 10:43:29
Privacy PolicyDisclaimer
• wx.awcolley.com is powered by PmWiki v.2002016 •
• all content (unless otherwise noted) © 2017 A W Colley